createdAt,value
2023-03-17T00:01:24.066Z,10.90
2023-03-17T00:03:51.617Z,10.90
2023-03-17T00:06:24.627Z,10.90
2023-03-17T00:08:51.605Z,10.80
2023-03-17T00:11:18.548Z,10.80
2023-03-17T00:13:46.315Z,10.80
2023-03-17T00:16:25.497Z,10.80
2023-03-17T00:18:53.483Z,10.80
2023-03-17T00:21:26.147Z,10.70
2023-03-17T00:23:53.093Z,10.70
2023-03-17T00:26:20.261Z,10.70
2023-03-17T00:28:47.351Z,10.60
2023-03-17T00:31:32.763Z,10.60
2023-03-17T00:34:00.536Z,10.60
2023-03-17T00:36:29.507Z,10.60
2023-03-17T00:38:57.370Z,10.50
2023-03-17T00:41:24.236Z,10.50
2023-03-17T00:43:51.219Z,10.50
2023-03-17T00:46:28.780Z,10.50
2023-03-17T00:48:55.719Z,10.50
2023-03-17T00:51:23.443Z,10.40
2023-03-17T00:53:50.682Z,10.40
2023-03-17T00:56:20.796Z,10.40
2023-03-17T00:58:48.422Z,10.40
2023-03-17T01:01:15.935Z,10.40
2023-03-17T01:03:42.859Z,10.40
2023-03-17T01:06:12.197Z,10.40
2023-03-17T01:08:40.653Z,10.30
2023-03-17T01:11:10.580Z,10.30
2023-03-17T01:13:37.344Z,10.30
2023-03-17T01:16:06.109Z,10.30
2023-03-17T01:18:33.201Z,10.30
2023-03-17T01:20:59.972Z,10.20
2023-03-17T01:23:27.302Z,10.30
2023-03-17T01:25:54.425Z,10.20
2023-03-17T01:28:21.404Z,10.20
2023-03-17T01:30:49.237Z,10.20
2023-03-17T01:33:16.048Z,10.20
2023-03-17T01:35:46.155Z,10.20
2023-03-17T01:38:13.523Z,10.20
2023-03-17T01:40:46.915Z,10.20
2023-03-17T01:43:24.359Z,10.20
2023-03-17T01:46:18.306Z,10.10
2023-03-17T01:49:34.764Z,10.20
2023-03-17T01:52:06.220Z,10.10
2023-03-17T01:54:35.813Z,10.10
2023-03-17T01:57:13.640Z,10.10
2023-03-17T01:59:47.258Z,10.10
2023-03-17T02:02:19.064Z,10.10
2023-03-17T02:04:45.846Z,10.10
2023-03-17T02:07:12.816Z,10.10
2023-03-17T02:09:41.021Z,10.10
2023-03-17T02:12:09.217Z,10.00
2023-03-17T02:14:36.510Z,10.00
2023-03-17T02:17:03.390Z,10.00
2023-03-17T02:19:30.885Z,10.00
2023-03-17T02:21:58.865Z,9.90
2023-03-17T02:24:35.433Z,10.00
2023-03-17T02:27:11.959Z,9.90
2023-03-17T02:29:39.556Z,9.90
2023-03-17T02:32:06.819Z,9.90
2023-03-17T02:34:34.188Z,9.90
2023-03-17T02:37:00.990Z,9.90
2023-03-17T02:39:27.968Z,9.90
2023-03-17T02:41:54.837Z,9.90
2023-03-17T02:44:21.965Z,9.80
2023-03-17T02:46:48.758Z,9.80
2023-03-17T02:49:15.966Z,9.80
2023-03-17T02:51:42.789Z,9.80
2023-03-17T02:54:09.826Z,9.80
2023-03-17T02:56:36.979Z,9.70
2023-03-17T02:59:04.059Z,9.70
2023-03-17T03:01:31.027Z,9.70
2023-03-17T03:03:59.582Z,9.70
2023-03-17T03:06:26.382Z,9.70
2023-03-17T03:08:53.187Z,9.70
2023-03-17T03:11:20.028Z,9.70
2023-03-17T03:13:47.107Z,9.60
2023-03-17T03:16:13.980Z,9.60
2023-03-17T03:18:40.978Z,9.60
2023-03-17T03:21:08.331Z,9.60
2023-03-17T03:23:35.310Z,9.60
2023-03-17T03:26:02.357Z,9.60
2023-03-17T03:28:29.413Z,9.60
2023-03-17T03:30:57.720Z,9.60
2023-03-17T03:33:24.555Z,9.60
2023-03-17T03:35:51.434Z,9.60
2023-03-17T03:38:18.392Z,9.50
2023-03-17T03:40:45.531Z,9.50
2023-03-17T03:43:22.988Z,9.50
2023-03-17T03:45:50.889Z,9.50
2023-03-17T03:48:18.042Z,9.50
2023-03-17T03:50:45.741Z,9.50
2023-03-17T03:53:13.080Z,9.50
2023-03-17T03:55:40.821Z,9.50
2023-03-17T03:58:08.798Z,9.40
2023-03-17T04:00:35.622Z,9.40
2023-03-17T04:03:02.530Z,9.40
2023-03-17T04:05:29.453Z,9.40
2023-03-17T04:07:56.593Z,9.40
2023-03-17T04:10:23.396Z,9.40
2023-03-17T04:12:50.301Z,9.40
2023-03-17T04:15:18.178Z,9.40
2023-03-17T04:17:45.144Z,9.30
2023-03-17T04:20:13.221Z,9.40
2023-03-17T04:22:41.762Z,9.40
2023-03-17T04:25:10.280Z,9.30
2023-03-17T04:27:37.543Z,9.40
2023-03-17T04:30:05.478Z,9.40
2023-03-17T04:32:32.304Z,9.40
2023-03-17T04:34:59.232Z,9.40
2023-03-17T04:37:26.206Z,9.30
2023-03-17T04:39:53.403Z,9.30
2023-03-17T04:42:20.197Z,9.30
2023-03-17T04:44:47.058Z,9.30
2023-03-17T04:47:13.814Z,9.40
2023-03-17T04:49:40.607Z,9.30
2023-03-17T04:52:07.899Z,9.30
2023-03-17T04:54:34.669Z,9.30
2023-03-17T04:57:01.446Z,9.30
2023-03-17T04:59:28.240Z,9.30
2023-03-17T05:01:55.020Z,9.20
2023-03-17T05:04:31.136Z,9.20
2023-03-17T05:06:59.568Z,9.20
2023-03-17T05:09:27.191Z,9.20
2023-03-17T05:11:54.246Z,9.20
2023-03-17T05:14:21.161Z,9.20
2023-03-17T05:16:48.574Z,9.10
2023-03-17T05:19:16.602Z,9.10
2023-03-17T05:21:43.773Z,9.10
2023-03-17T05:24:10.665Z,9.10
2023-03-17T05:26:37.605Z,9.10
2023-03-17T05:29:04.823Z,9.10
2023-03-17T05:31:32.252Z,9.00
2023-03-17T05:33:59.608Z,9.00
2023-03-17T05:36:26.397Z,9.00
2023-03-17T05:38:53.614Z,9.00
2023-03-17T05:41:20.484Z,9.00
2023-03-17T05:43:47.445Z,9.00
2023-03-17T05:46:14.601Z,9.00
2023-03-17T05:48:41.968Z,9.00
2023-03-17T05:51:09.074Z,9.00
2023-03-17T05:53:38.710Z,9.00
2023-03-17T05:56:06.540Z,8.90
2023-03-17T05:58:33.640Z,8.90
2023-03-17T06:01:01.093Z,8.90
2023-03-17T06:03:27.918Z,8.90
2023-03-17T06:05:54.718Z,8.90
2023-03-17T06:08:21.877Z,8.90
2023-03-17T06:10:48.730Z,8.80
2023-03-17T06:13:15.786Z,8.90
2023-03-17T06:15:43.140Z,8.80
2023-03-17T06:18:10.074Z,8.90
2023-03-17T06:20:37.239Z,8.90
2023-03-17T06:23:05.905Z,8.90
2023-03-17T06:25:37.069Z,8.90
2023-03-17T06:28:05.446Z,8.90
2023-03-17T06:30:33.932Z,8.90
2023-03-17T06:33:01.721Z,8.90
2023-03-17T06:35:30.261Z,8.90
2023-03-17T06:37:57.987Z,8.90
2023-03-17T06:40:24.927Z,8.90
2023-03-17T06:42:52.023Z,8.90
2023-03-17T06:45:18.885Z,8.90
2023-03-17T06:47:46.418Z,8.90
2023-03-17T06:50:13.469Z,8.90
2023-03-17T06:52:40.880Z,8.90
2023-03-17T06:55:08.667Z,8.90
2023-03-17T06:57:35.867Z,9.00
2023-03-17T07:00:05.579Z,9.00
2023-03-17T07:02:33.760Z,9.00
2023-03-17T07:05:01.211Z,9.00
2023-03-17T07:07:28.346Z,9.00
2023-03-17T07:09:55.270Z,9.00
2023-03-17T07:12:22.228Z,9.00
2023-03-17T07:14:49.084Z,9.00
2023-03-17T07:17:16.180Z,9.00
2023-03-17T07:19:43.689Z,9.10
2023-03-17T07:22:12.243Z,9.10
2023-03-17T07:24:39.771Z,9.10
2023-03-17T07:27:07.094Z,9.10
2023-03-17T07:29:34.632Z,9.20
2023-03-17T07:32:02.128Z,9.20
2023-03-17T07:34:29.007Z,9.30
2023-03-17T07:36:56.058Z,9.30
2023-03-17T07:39:22.892Z,9.30
2023-03-17T07:41:55.099Z,9.40
2023-03-17T07:44:23.341Z,9.40
2023-03-17T07:46:51.619Z,9.40
2023-03-17T07:49:25.167Z,9.40
2023-03-17T07:52:01.118Z,9.50
2023-03-17T07:54:29.179Z,9.50
2023-03-17T07:56:57.030Z,9.50
2023-03-17T07:59:23.932Z,9.50
2023-03-17T08:01:51.049Z,9.60
2023-03-17T08:04:17.893Z,9.60
2023-03-17T08:06:46.951Z,9.70
2023-03-17T08:09:13.879Z,9.70
2023-03-17T08:11:40.720Z,9.70
2023-03-17T08:14:07.749Z,9.80
2023-03-17T08:16:36.971Z,9.80
2023-03-17T08:19:04.392Z,9.80
2023-03-17T08:21:31.990Z,9.90
2023-03-17T08:23:58.873Z,9.90
2023-03-17T08:26:25.910Z,10.00
2023-03-17T08:28:52.742Z,10.00
2023-03-17T08:31:21.614Z,10.10
2023-03-17T08:33:53.200Z,10.10
2023-03-17T08:36:21.073Z,10.20
2023-03-17T08:38:48.812Z,10.30
2023-03-17T08:41:21.901Z,10.40
2023-03-17T08:43:48.882Z,10.50
2023-03-17T08:46:21.922Z,10.60
2023-03-17T08:48:51.232Z,10.70
2023-03-17T08:51:22.856Z,10.80
2023-03-17T08:53:52.409Z,10.90
2023-03-17T08:56:19.880Z,11.00
2023-03-17T08:58:47.685Z,11.20
2023-03-17T09:01:15.581Z,11.20
2023-03-17T09:03:43.349Z,11.20
2023-03-17T09:06:12.474Z,11.20
2023-03-17T09:08:44.513Z,11.30
2023-03-17T09:11:14.078Z,11.40
2023-03-17T09:13:41.584Z,11.50
2023-03-17T09:16:09.019Z,11.50
2023-03-17T09:18:36.151Z,11.60
2023-03-17T09:21:03.727Z,11.70
2023-03-17T09:23:31.078Z,11.70
2023-03-17T09:26:00.596Z,11.80
2023-03-17T09:28:27.525Z,11.80
2023-03-17T09:30:59.300Z,11.80
2023-03-17T09:33:27.234Z,11.80
2023-03-17T09:35:56.946Z,11.90
2023-03-17T09:38:25.720Z,11.90
2023-03-17T09:41:23.953Z,11.90
2023-03-17T09:44:16.906Z,12.00
2023-03-17T09:46:46.997Z,12.10
2023-03-17T09:49:20.646Z,12.10
2023-03-17T09:51:48.210Z,12.20
2023-03-17T09:54:26.856Z,12.30
2023-03-17T09:57:44.900Z,12.30
2023-03-17T10:00:14.930Z,12.30
2023-03-17T10:02:43.222Z,12.40
2023-03-17T10:05:13.166Z,12.40
2023-03-17T10:07:47.160Z,12.50
2023-03-17T10:10:16.980Z,12.50
2023-03-17T10:12:56.442Z,12.50
2023-03-17T10:15:37.479Z,12.60
2023-03-17T10:18:15.268Z,12.70
2023-03-17T10:20:57.728Z,12.80
2023-03-17T10:23:28.003Z,12.90
2023-03-17T10:25:56.895Z,13.00
2023-03-17T10:28:30.782Z,13.00
2023-03-17T10:31:14.259Z,13.00
2023-03-17T10:33:41.184Z,13.00
2023-03-17T10:36:10.268Z,13.10
2023-03-17T10:38:37.398Z,13.20
2023-03-17T10:41:13.522Z,13.30
2023-03-17T10:43:50.628Z,13.40
2023-03-17T10:46:24.422Z,13.40
2023-03-17T10:48:54.092Z,13.50
2023-03-17T10:51:27.159Z,13.60
2023-03-17T10:53:54.655Z,13.60
2023-03-17T10:56:26.883Z,13.70
2023-03-17T10:58:55.560Z,13.70
2023-03-17T11:01:34.237Z,13.80
2023-03-17T11:04:02.791Z,13.80
2023-03-17T11:06:51.194Z,13.80
2023-03-17T11:09:19.242Z,13.90
2023-03-17T11:11:50.665Z,14.00
2023-03-17T11:14:19.459Z,14.00
2023-03-17T11:17:04.510Z,14.10
2023-03-17T11:19:54.409Z,14.10
2023-03-17T11:22:35.603Z,14.20
2023-03-17T11:25:05.464Z,14.30
2023-03-17T11:27:43.964Z,14.30
2023-03-17T11:30:14.847Z,14.40
2023-03-17T11:32:51.558Z,14.50
2023-03-17T11:35:24.497Z,14.50
2023-03-17T11:38:09.892Z,14.60
2023-03-17T11:41:09.249Z,14.60
2023-03-17T11:43:48.255Z,14.70
2023-03-17T11:46:24.864Z,14.80
2023-03-17T11:49:00.687Z,14.90
2023-03-17T11:51:45.987Z,15.00
2023-03-17T11:54:24.805Z,15.10
2023-03-17T11:56:54.532Z,15.20
2023-03-17T11:59:38.582Z,15.30
2023-03-17T12:02:08.299Z,15.30
2023-03-17T12:04:39.349Z,15.40
2023-03-17T12:07:21.497Z,15.50
2023-03-17T12:10:20.500Z,15.50
2023-03-17T12:12:52.190Z,15.60
2023-03-17T12:15:36.248Z,15.70
2023-03-17T12:18:10.570Z,15.80
2023-03-17T12:20:50.973Z,15.80
2023-03-17T12:23:29.893Z,15.90
2023-03-17T12:26:06.060Z,16.00
2023-03-17T12:28:38.852Z,16.00
2023-03-17T12:31:25.437Z,16.10
2023-03-17T12:34:02.887Z,16.10
2023-03-17T12:36:29.808Z,16.30
2023-03-17T12:39:05.504Z,16.40
2023-03-17T12:41:49.016Z,16.40
2023-03-17T12:44:34.360Z,16.60
2023-03-17T12:47:13.453Z,16.70
2023-03-17T12:49:55.900Z,16.80
2023-03-17T12:52:41.885Z,16.90
2023-03-17T12:55:14.746Z,17.00
2023-03-17T12:57:43.876Z,17.10
2023-03-17T13:00:25.501Z,17.20
2023-03-17T13:03:08.162Z,17.40
2023-03-17T13:05:37.503Z,17.50
2023-03-17T13:08:06.671Z,17.50
2023-03-17T13:10:43.010Z,17.60
2023-03-17T13:13:09.729Z,17.70
2023-03-17T13:15:38.091Z,17.80
2023-03-17T13:18:27.242Z,17.90
2023-03-17T13:20:56.997Z,18.10
2023-03-17T13:23:55.027Z,18.20
2023-03-17T13:26:42.755Z,18.30
2023-03-17T13:29:28.158Z,18.40
2023-03-17T13:32:17.091Z,18.60
2023-03-17T13:34:58.507Z,18.70
2023-03-17T13:37:33.375Z,18.80
2023-03-17T13:40:26.070Z,18.90
2023-03-17T13:42:57.733Z,19.10
2023-03-17T13:45:44.085Z,19.30
2023-03-17T13:48:29.956Z,19.40
2023-03-17T13:51:05.192Z,19.50
2023-03-17T13:53:41.295Z,19.50
2023-03-17T13:56:15.233Z,19.60
2023-03-17T13:59:05.945Z,19.70
2023-03-17T14:01:39.111Z,19.70
2023-03-17T14:04:11.057Z,19.90
2023-03-17T14:06:38.417Z,20.00
2023-03-17T14:09:16.725Z,20.00
2023-03-17T14:11:45.918Z,20.10
2023-03-17T14:14:44.868Z,20.10
2023-03-17T14:17:14.439Z,20.10
2023-03-17T14:19:41.864Z,20.20
2023-03-17T14:22:44.853Z,20.20
2023-03-17T14:25:21.302Z,20.20
2023-03-17T14:27:52.649Z,20.20
2023-03-17T14:30:24.875Z,20.20
2023-03-17T14:33:02.204Z,20.10
2023-03-17T14:35:31.229Z,20.30
2023-03-17T14:37:58.440Z,20.50
2023-03-17T14:40:27.877Z,20.50
2023-03-17T14:42:54.981Z,20.60
2023-03-17T14:45:31.109Z,20.40
2023-03-17T14:47:58.240Z,20.30
2023-03-17T14:50:29.021Z,20.10
2023-03-17T14:52:57.912Z,20.10
2023-03-17T14:55:39.673Z,20.10
2023-03-17T14:58:21.782Z,20.10
2023-03-17T15:00:55.622Z,20.00
2023-03-17T15:03:24.222Z,20.10
2023-03-17T15:05:51.592Z,20.10
2023-03-17T15:08:36.138Z,20.00
2023-03-17T15:11:04.703Z,20.10
2023-03-17T15:13:34.890Z,20.10
2023-03-17T15:16:18.726Z,20.10
2023-03-17T15:18:46.297Z,20.00
2023-03-17T15:21:32.717Z,20.10
2023-03-17T15:24:05.170Z,20.10
2023-03-17T15:26:32.282Z,20.00
2023-03-17T15:29:00.532Z,19.90
2023-03-17T15:31:30.242Z,19.80
2023-03-17T15:33:57.312Z,19.70
2023-03-17T15:36:32.283Z,19.80
2023-03-17T15:39:00.678Z,19.70
2023-03-17T15:41:27.685Z,19.60
2023-03-17T15:43:54.512Z,19.60
2023-03-17T15:46:31.752Z,19.50
2023-03-17T15:48:58.652Z,19.40
2023-03-17T15:51:25.562Z,19.50
2023-03-17T15:53:52.401Z,19.40
2023-03-17T15:56:20.981Z,19.40
2023-03-17T15:58:49.329Z,19.40
2023-03-17T16:01:16.805Z,19.30
2023-03-17T16:03:45.413Z,19.40
2023-03-17T16:06:16.597Z,19.40
2023-03-17T16:08:43.675Z,19.30
2023-03-17T16:11:19.354Z,19.30
2023-03-17T16:13:47.483Z,19.20
2023-03-17T16:16:21.706Z,19.20
2023-03-17T16:18:51.114Z,19.20
2023-03-17T16:21:19.181Z,19.10
2023-03-17T16:23:47.966Z,19.10
2023-03-17T16:26:16.942Z,19.10
2023-03-17T16:28:46.298Z,19.00
2023-03-17T16:31:19.263Z,19.00
2023-03-17T16:33:46.536Z,19.00
2023-03-17T16:36:19.176Z,19.00
2023-03-17T16:38:46.768Z,18.80
2023-03-17T16:41:22.946Z,18.90
2023-03-17T16:43:55.370Z,18.80
2023-03-17T16:46:22.810Z,18.80
2023-03-17T16:48:50.604Z,18.70
2023-03-17T16:51:17.709Z,18.60
2023-03-17T16:53:44.992Z,18.60
2023-03-17T16:56:16.754Z,18.60
2023-03-17T16:58:43.669Z,18.50
2023-03-17T17:01:14.571Z,18.50
2023-03-17T17:03:41.829Z,18.50
2023-03-17T17:06:10.624Z,18.60
2023-03-17T17:08:37.553Z,18.50
2023-03-17T17:11:04.424Z,18.50
2023-03-17T17:13:31.368Z,18.30
2023-03-17T17:15:58.307Z,18.30
2023-03-17T17:18:25.250Z,18.40
2023-03-17T17:20:53.187Z,18.30
2023-03-17T17:23:25.447Z,18.30
2023-03-17T17:25:53.265Z,18.30
2023-03-17T17:28:22.837Z,18.20
2023-03-17T17:30:51.081Z,18.30
2023-03-17T17:33:19.364Z,18.30
2023-03-17T17:35:47.689Z,18.20
2023-03-17T17:38:26.721Z,18.20
2023-03-17T17:40:55.205Z,18.20
2023-03-17T17:43:22.354Z,18.10
2023-03-17T17:45:49.287Z,18.00
2023-03-17T17:48:18.098Z,18.00
2023-03-17T17:50:45.377Z,17.90
2023-03-17T17:53:12.560Z,17.80
2023-03-17T17:55:41.571Z,17.80
2023-03-17T17:58:09.565Z,17.80
2023-03-17T18:00:36.473Z,17.60
2023-03-17T18:03:03.520Z,17.50
2023-03-17T18:05:30.491Z,17.40
2023-03-17T18:07:58.213Z,17.50
2023-03-17T18:10:26.299Z,17.40
2023-03-17T18:12:53.677Z,17.50
2023-03-17T18:15:22.013Z,17.40
2023-03-17T18:17:49.273Z,17.40
2023-03-17T18:20:17.705Z,17.40
2023-03-17T18:22:44.802Z,17.30
2023-03-17T18:25:12.959Z,17.30
2023-03-17T18:27:40.051Z,17.30
2023-03-17T18:30:08.881Z,17.10
2023-03-17T18:32:36.368Z,17.10
2023-03-17T18:35:06.681Z,17.10
2023-03-17T18:37:33.975Z,17.20
2023-03-17T18:40:13.351Z,17.10
2023-03-17T18:42:42.277Z,17.10
2023-03-17T18:45:10.427Z,17.00
2023-03-17T18:47:39.013Z,17.00
2023-03-17T18:50:07.146Z,17.00
2023-03-17T18:52:35.813Z,17.00
2023-03-17T18:55:03.103Z,16.90
2023-03-17T18:57:30.010Z,16.90
2023-03-17T18:59:56.900Z,16.90
2023-03-17T19:02:23.952Z,16.90
2023-03-17T19:04:51.397Z,16.90
2023-03-17T19:07:18.324Z,16.80
2023-03-17T19:09:45.170Z,16.80
2023-03-17T19:12:12.226Z,16.70
2023-03-17T19:14:39.907Z,16.70
2023-03-17T19:17:07.545Z,16.70
2023-03-17T19:19:35.424Z,16.50
2023-03-17T19:22:03.902Z,16.40
2023-03-17T19:24:32.114Z,16.30
2023-03-17T19:26:58.929Z,16.30
2023-03-17T19:29:27.758Z,16.30
2023-03-17T19:31:54.728Z,16.20
2023-03-17T19:34:23.316Z,16.10
2023-03-17T19:36:50.649Z,16.10
2023-03-17T19:39:17.868Z,16.00
2023-03-17T19:41:44.853Z,16.00
2023-03-17T19:44:11.733Z,15.90
2023-03-17T19:46:38.715Z,15.90
2023-03-17T19:49:05.666Z,15.90
2023-03-17T19:51:33.205Z,15.80
2023-03-17T19:54:00.208Z,15.80
2023-03-17T19:56:27.960Z,15.60
2023-03-17T19:58:55.489Z,15.40
2023-03-17T20:01:22.959Z,15.50
2023-03-17T20:03:49.999Z,15.60
2023-03-17T20:06:17.239Z,15.40
2023-03-17T20:08:44.513Z,15.30
2023-03-17T20:11:12.644Z,15.30
2023-03-17T20:13:40.233Z,15.30
2023-03-17T20:16:08.156Z,15.30
2023-03-17T20:18:35.985Z,15.20
2023-03-17T20:21:05.745Z,15.10
2023-03-17T20:23:32.831Z,15.10
2023-03-17T20:25:59.721Z,15.00
2023-03-17T20:28:28.850Z,15.00
2023-03-17T20:31:02.726Z,15.00
2023-03-17T20:33:29.672Z,15.00
2023-03-17T20:35:56.611Z,15.00
2023-03-17T20:38:23.734Z,15.00
2023-03-17T20:40:50.642Z,14.90
2023-03-17T20:43:17.763Z,14.90
2023-03-17T20:45:44.621Z,14.90
2023-03-17T20:48:12.055Z,14.90
2023-03-17T20:50:39.143Z,14.90
2023-03-17T20:53:06.054Z,14.80
2023-03-17T20:55:32.936Z,14.90
2023-03-17T20:57:59.884Z,14.70
2023-03-17T21:00:26.995Z,14.60
2023-03-17T21:02:53.929Z,14.60
2023-03-17T21:05:24.653Z,14.40
2023-03-17T21:07:51.591Z,14.30
2023-03-17T21:10:18.742Z,14.20
2023-03-17T21:12:45.825Z,14.10
2023-03-17T21:15:14.077Z,14.00
2023-03-17T21:17:42.400Z,13.90
2023-03-17T21:20:12.911Z,14.00
2023-03-17T21:22:40.443Z,14.00
2023-03-17T21:25:09.722Z,14.00
2023-03-17T21:27:37.840Z,13.90
2023-03-17T21:30:06.794Z,13.90
2023-03-17T21:32:33.773Z,13.80
2023-03-17T21:35:01.042Z,13.80
2023-03-17T21:37:28.033Z,13.90
2023-03-17T21:39:55.355Z,13.80
2023-03-17T21:42:22.788Z,13.80
2023-03-17T21:44:50.145Z,13.80
2023-03-17T21:47:16.930Z,13.80
2023-03-17T21:49:44.363Z,13.80
2023-03-17T21:52:11.561Z,13.80
2023-03-17T21:54:38.414Z,13.70
2023-03-17T21:57:05.291Z,13.70
2023-03-17T21:59:34.445Z,13.70
2023-03-17T22:02:01.780Z,13.70
2023-03-17T22:04:28.574Z,13.60
2023-03-17T22:06:56.031Z,13.60
2023-03-17T22:09:22.847Z,13.60
2023-03-17T22:11:49.848Z,13.70
2023-03-17T22:14:20.032Z,13.70
2023-03-17T22:16:47.981Z,13.60
2023-03-17T22:19:15.623Z,13.60
2023-03-17T22:21:42.774Z,13.50
2023-03-17T22:24:10.135Z,13.50
2023-03-17T22:26:37.002Z,13.40
2023-03-17T22:29:04.092Z,13.40
2023-03-17T22:31:31.256Z,13.30
2023-03-17T22:33:59.293Z,13.30
2023-03-17T22:36:26.897Z,13.30
2023-03-17T22:38:54.054Z,13.20
2023-03-17T22:41:23.604Z,13.20
2023-03-17T22:43:50.793Z,13.10
2023-03-17T22:46:18.097Z,13.10
2023-03-17T22:48:46.351Z,13.10
2023-03-17T22:51:16.492Z,13.10
2023-03-17T22:53:43.401Z,13.10
2023-03-17T22:56:11.777Z,13.00
2023-03-17T22:58:39.565Z,13.00
2023-03-17T23:01:07.102Z,13.00
2023-03-17T23:03:34.462Z,12.90
2023-03-17T23:06:03.488Z,12.90
2023-03-17T23:08:32.192Z,12.90
2023-03-17T23:11:00.699Z,12.90
2023-03-17T23:13:27.760Z,12.90
2023-03-17T23:15:54.790Z,12.80
2023-03-17T23:18:21.579Z,12.80
2023-03-17T23:20:48.705Z,12.80
2023-03-17T23:23:15.876Z,12.80
2023-03-17T23:25:42.749Z,12.70
2023-03-17T23:28:10.040Z,12.70
2023-03-17T23:30:37.366Z,12.70
2023-03-17T23:33:07.647Z,12.80
2023-03-17T23:35:35.700Z,12.70
2023-03-17T23:38:04.059Z,12.70
2023-03-17T23:40:31.902Z,12.70
2023-03-17T23:42:58.912Z,12.70
2023-03-17T23:45:25.970Z,12.70
2023-03-17T23:47:53.016Z,12.60
2023-03-17T23:50:20.964Z,12.70
2023-03-17T23:52:48.172Z,12.60
2023-03-17T23:55:16.886Z,12.60
2023-03-17T23:57:44.795Z,12.60
